createdAt,value
2022-11-27T00:02:30.848Z,14.73
2022-11-27T00:07:34.214Z,15.00
2022-11-27T00:12:36.659Z,15.83
2022-11-27T00:17:38.784Z,14.70
2022-11-27T00:22:42.226Z,16.20
2022-11-27T00:27:44.399Z,12.10
2022-11-27T00:32:46.675Z,17.43
2022-11-27T00:37:50.023Z,12.70
2022-11-27T00:42:52.184Z,16.47
2022-11-27T00:47:54.265Z,13.17
2022-11-27T00:52:57.936Z,17.33
2022-11-27T00:57:59.707Z,18.77
2022-11-27T01:03:01.945Z,18.63
2022-11-27T01:08:05.570Z,13.37
2022-11-27T01:13:07.458Z,19.30
2022-11-27T01:18:09.718Z,15.30
2022-11-27T01:23:13.208Z,16.37
2022-11-27T01:28:15.559Z,16.83
2022-11-27T01:33:18.412Z,16.30
2022-11-27T01:38:22.143Z,14.60
2022-11-27T01:43:37.372Z,16.83
2022-11-27T01:48:39.792Z,13.60
2022-11-27T01:53:43.411Z,13.10
2022-11-27T01:58:45.570Z,7.10
2022-11-27T02:03:47.947Z,8.67
2022-11-27T02:08:51.504Z,7.27
2022-11-27T02:13:59.474Z,8.80
2022-11-27T02:19:14.585Z,6.23
2022-11-27T02:24:46.512Z,6.93
2022-11-27T02:29:56.538Z,7.93
2022-11-27T02:35:04.659Z,10.00
2022-11-27T02:40:12.210Z,8.80
2022-11-27T02:45:19.291Z,11.73
2022-11-27T02:50:26.334Z,9.87
2022-11-27T02:55:33.308Z,10.10
2022-11-27T03:00:38.886Z,8.47
2022-11-27T03:05:43.909Z,9.67
2022-11-27T03:10:50.182Z,14.17
2022-11-27T03:16:05.143Z,9.33
2022-11-27T03:21:18.290Z,10.57
2022-11-27T03:26:20.366Z,10.43
2022-11-27T03:31:24.345Z,11.23
2022-11-27T03:36:26.678Z,14.80
2022-11-27T03:41:40.772Z,10.77
2022-11-27T03:46:53.130Z,24.60
2022-11-27T03:52:04.728Z,11.47
2022-11-27T03:57:18.006Z,22.37
2022-11-27T04:02:29.378Z,28.60
2022-11-27T04:07:31.313Z,24.37
2022-11-27T04:12:33.461Z,20.67
2022-11-27T04:17:36.991Z,21.67
2022-11-27T04:22:39.053Z,17.07
2022-11-27T04:27:41.301Z,15.70
2022-11-27T04:32:44.980Z,17.47
2022-11-27T04:37:47.415Z,22.93
2022-11-27T04:42:49.543Z,20.43
2022-11-27T04:47:52.834Z,16.53
2022-11-27T04:52:54.915Z,24.30
2022-11-27T04:57:57.058Z,16.23
2022-11-27T05:03:00.666Z,17.53
2022-11-27T05:08:02.944Z,49.47
2022-11-27T05:13:05.007Z,12.40
2022-11-27T05:18:08.302Z,22.73
2022-11-27T05:23:10.003Z,16.33
2022-11-27T05:28:12.096Z,15.83
2022-11-27T05:33:16.911Z,14.27
2022-11-27T05:38:19.257Z,14.70
2022-11-27T05:43:21.331Z,17.03
2022-11-27T05:48:24.383Z,12.30
2022-11-27T05:53:26.435Z,24.07
2022-11-27T05:58:28.508Z,15.13
2022-11-27T06:03:32.073Z,15.63
2022-11-27T06:08:33.754Z,14.07
2022-11-27T06:13:36.339Z,17.73
2022-11-27T06:18:39.890Z,12.47
2022-11-27T06:23:43.185Z,14.00
2022-11-27T06:28:46.369Z,15.37
2022-11-27T06:33:51.788Z,18.70
2022-11-27T06:38:54.491Z,13.70
2022-11-27T06:43:59.314Z,16.63
2022-11-27T06:49:02.868Z,16.17
2022-11-27T06:54:05.220Z,13.43
2022-11-27T06:59:07.359Z,12.47
2022-11-27T07:04:12.729Z,15.07
2022-11-27T07:09:15.391Z,15.77
2022-11-27T07:14:17.350Z,13.90
2022-11-27T07:19:20.380Z,14.10
2022-11-27T07:24:22.099Z,14.87
2022-11-27T07:29:24.392Z,16.77
2022-11-27T07:34:28.095Z,19.97
2022-11-27T07:40:00.408Z,19.07
2022-11-27T07:44:52.235Z,20.27
2022-11-27T07:49:55.330Z,18.27
2022-11-27T07:54:57.094Z,23.90
2022-11-27T07:59:58.787Z,18.37
2022-11-27T08:05:02.112Z,18.73
2022-11-27T08:10:04.178Z,22.50
2022-11-27T08:15:07.675Z,18.67
2022-11-27T08:20:11.245Z,24.27
2022-11-27T08:25:13.171Z,20.47
2022-11-27T08:30:15.517Z,22.53
2022-11-27T08:35:18.736Z,18.90
2022-11-27T08:40:20.915Z,22.50
2022-11-27T08:45:23.210Z,22.37
2022-11-27T08:50:26.822Z,23.20
2022-11-27T08:55:28.499Z,28.43
2022-11-27T09:00:30.255Z,20.23
2022-11-27T09:05:33.809Z,19.43
2022-11-27T09:10:37.236Z,28.40
2022-11-27T09:15:38.989Z,20.33
2022-11-27T09:20:42.101Z,20.57
2022-11-27T09:25:44.063Z,20.93
2022-11-27T09:30:46.315Z,26.00
2022-11-27T09:35:49.776Z,23.33
2022-11-27T09:40:58.120Z,25.10
2022-11-27T09:46:06.844Z,28.33
2022-11-27T09:51:14.203Z,27.63
2022-11-27T09:56:17.590Z,29.43
2022-11-27T10:01:33.672Z,38.73
2022-11-27T10:06:59.430Z,18.00
2022-11-27T10:12:12.074Z,10.37
2022-11-27T10:17:18.106Z,7.20
2022-11-27T10:22:26.238Z,7.33
2022-11-27T10:27:36.398Z,7.20
2022-11-27T10:32:55.454Z,6.80
2022-11-27T10:38:06.951Z,6.93
2022-11-27T10:43:15.891Z,7.40
2022-11-27T10:48:18.294Z,7.50
2022-11-27T10:53:26.831Z,7.27
2022-11-27T10:58:34.144Z,4.37
2022-11-27T11:03:36.523Z,7.43
2022-11-27T11:08:39.949Z,7.00
2022-11-27T11:13:46.915Z,10.80
2022-11-27T11:18:50.933Z,6.73
2022-11-27T11:23:59.003Z,7.27
2022-11-27T11:29:04.963Z,5.17
2022-11-27T11:34:22.736Z,7.70
2022-11-27T11:39:28.591Z,5.07
2022-11-27T11:44:35.895Z,7.17
2022-11-27T11:49:40.016Z,9.83
2022-11-27T11:54:50.515Z,8.07
2022-11-27T12:00:02.475Z,6.43
2022-11-27T12:05:16.849Z,4.57
2022-11-27T12:10:24.785Z,5.50
2022-11-27T12:15:31.916Z,6.20
2022-11-27T12:20:47.164Z,5.00
2022-11-27T12:25:57.271Z,5.70
2022-11-27T12:31:06.873Z,6.20
2022-11-27T12:36:22.098Z,5.77
2022-11-27T12:41:37.598Z,5.03
2022-11-27T12:46:48.901Z,2.90
2022-11-27T12:51:54.959Z,5.03
2022-11-27T12:57:02.819Z,3.63
2022-11-27T13:02:21.516Z,4.37
2022-11-27T13:07:27.145Z,7.30
2022-11-27T13:12:35.474Z,4.83
2022-11-27T13:17:41.379Z,3.90
2022-11-27T13:22:43.853Z,3.63
2022-11-27T13:27:50.556Z,4.17
2022-11-27T13:32:55.967Z,4.30
2022-11-27T13:38:05.496Z,6.00
2022-11-27T13:43:21.192Z,3.93
2022-11-27T13:48:31.741Z,2.00
2022-11-27T13:53:36.372Z,2.07
2022-11-27T13:58:41.785Z,2.27
2022-11-27T14:03:44.236Z,2.87
2022-11-27T14:08:56.203Z,2.93
2022-11-27T14:14:02.911Z,3.20
2022-11-27T14:19:21.846Z,3.57
2022-11-27T14:24:36.287Z,5.43
2022-11-27T14:29:39.361Z,3.70
2022-11-27T14:34:41.544Z,6.70
2022-11-27T14:39:44.109Z,2.50
2022-11-27T14:44:47.883Z,4.07
2022-11-27T14:49:56.158Z,3.87
2022-11-27T14:54:59.443Z,5.70
2022-11-27T15:00:13.944Z,4.03
2022-11-27T15:05:19.519Z,6.33
2022-11-27T15:10:27.499Z,6.20
2022-11-27T15:15:33.336Z,6.37
2022-11-27T15:20:38.823Z,8.13
2022-11-27T15:25:42.751Z,5.83
2022-11-27T15:30:46.747Z,6.73
2022-11-27T15:35:52.664Z,8.67
2022-11-27T15:40:58.725Z,8.23
2022-11-27T15:46:04.939Z,6.93
2022-11-27T15:51:06.929Z,7.33
2022-11-27T15:56:09.251Z,7.30
2022-11-27T16:01:12.503Z,6.20
2022-11-27T16:06:14.811Z,6.17
2022-11-27T16:11:16.509Z,8.27
2022-11-27T16:16:20.035Z,8.30
2022-11-27T16:21:29.144Z,9.93
2022-11-27T16:26:33.484Z,9.00
2022-11-27T16:31:36.907Z,10.67
2022-11-27T16:36:41.348Z,5.97
2022-11-27T16:41:43.041Z,7.70
2022-11-27T16:46:46.215Z,6.97
2022-11-27T16:51:48.265Z,7.40
2022-11-27T16:56:50.356Z,5.43
2022-11-27T17:01:53.560Z,7.40
2022-11-27T17:06:55.548Z,7.80
2022-11-27T17:11:57.604Z,9.53
2022-11-27T17:17:03.256Z,7.57
2022-11-27T17:22:05.831Z,9.43
2022-11-27T17:27:08.037Z,7.20
2022-11-27T17:32:11.502Z,7.73
2022-11-27T17:37:13.648Z,9.17
2022-11-27T17:42:21.057Z,10.93
2022-11-27T17:47:26.098Z,8.73
2022-11-27T17:52:28.340Z,13.20
2022-11-27T17:57:30.099Z,10.43
2022-11-27T18:02:33.741Z,9.33
2022-11-27T18:07:36.104Z,7.33
2022-11-27T18:12:37.986Z,8.57
2022-11-27T18:17:41.138Z,7.07
2022-11-27T18:22:43.022Z,9.33
2022-11-27T18:27:44.848Z,7.83
2022-11-27T18:32:48.475Z,7.90
2022-11-27T18:37:50.544Z,8.13
2022-11-27T18:42:53.255Z,9.77
2022-11-27T18:47:56.673Z,11.77
2022-11-27T18:52:58.639Z,8.87
2022-11-27T18:58:00.792Z,8.20
2022-11-27T19:03:04.002Z,6.70
2022-11-27T19:08:05.857Z,6.70
2022-11-27T19:13:07.864Z,9.63
2022-11-27T19:18:11.000Z,8.27
2022-11-27T19:23:13.024Z,8.97
2022-11-27T19:28:14.884Z,7.73
2022-11-27T19:33:18.262Z,8.00
2022-11-27T19:38:20.841Z,6.27
2022-11-27T19:43:23.096Z,10.60
2022-11-27T19:48:26.715Z,9.07
2022-11-27T19:53:28.900Z,8.70
2022-11-27T19:58:31.101Z,13.37
2022-11-27T20:03:34.960Z,6.33
2022-11-27T20:08:37.633Z,13.53
2022-11-27T20:13:39.631Z,10.70
2022-11-27T20:18:44.089Z,8.73
2022-11-27T20:23:47.753Z,7.17
2022-11-27T20:28:50.507Z,7.23
2022-11-27T20:33:56.867Z,7.77
2022-11-27T20:39:00.128Z,12.97
2022-11-27T20:44:03.170Z,11.97
2022-11-27T20:49:06.587Z,9.20
2022-11-27T20:54:11.006Z,8.30
2022-11-27T20:59:13.608Z,13.30
2022-11-27T21:04:24.089Z,8.17
2022-11-27T21:09:25.776Z,10.73
2022-11-27T21:14:27.970Z,11.77
2022-11-27T21:19:31.150Z,8.90
2022-11-27T21:24:32.986Z,9.43
2022-11-27T21:29:35.146Z,10.30
2022-11-27T21:34:40.608Z,10.33
2022-11-27T21:39:42.625Z,6.57
2022-11-27T21:44:44.917Z,14.13
2022-11-27T21:49:50.740Z,10.47
2022-11-27T21:54:53.219Z,10.07
2022-11-27T21:59:55.329Z,11.63
2022-11-27T22:04:58.944Z,14.90
2022-11-27T22:10:01.131Z,11.30
2022-11-27T22:15:03.270Z,14.30
2022-11-27T22:20:08.415Z,11.00
2022-11-27T22:25:10.143Z,12.67
2022-11-27T22:30:12.579Z,13.57
2022-11-27T22:35:16.181Z,11.90
2022-11-27T22:40:18.420Z,12.83
2022-11-27T22:45:20.647Z,11.77
2022-11-27T22:50:23.780Z,15.50
2022-11-27T22:55:26.126Z,14.40
2022-11-27T23:00:28.189Z,12.73
2022-11-27T23:05:31.921Z,16.77
2022-11-27T23:10:34.330Z,22.73
2022-11-27T23:15:36.883Z,17.30
2022-11-27T23:20:42.955Z,14.67
2022-11-27T23:25:45.025Z,14.93
2022-11-27T23:30:48.520Z,20.00
2022-11-27T23:35:59.690Z,19.37
2022-11-27T23:41:08.368Z,21.50
2022-11-27T23:46:12.609Z,20.40
2022-11-27T23:51:18.991Z,16.40
2022-11-27T23:56:24.457Z,18.57
